Time;durP1;ratioP1;P1;durP2;ratioP2;P2;SDS_P1;SDS_P2;PMS_P1;PMS_P2;Temp;Humidity;BMP_temperature;BMP_pressure;BME280_temperature;BME280_humidity;BME280_pressure;Samples;Min_cycle;Max_cycle;Signal;HPM_P1;HPM_P2
2022/12/03 00:01:58;;;;;;;26.98;12.27;;;-5.10;99.90;;;;;;5045374;28;20050;-74
2022/12/03 00:04:25;;;;;;;30.73;11.57;;;-5.10;99.90;;;;;;5012717;28;20133;-74
2022/12/03 00:06:53;;;;;;;23.50;11.00;;;-5.10;99.90;;;;;;5013563;28;20045;-73
2022/12/03 00:09:22;;;;;;;24.27;10.95;;;-5.10;99.90;;;;;;5012256;28;20072;-72
2022/12/03 00:11:49;;;;;;;24.38;10.05;;;-5.10;99.90;;;;;;5011870;28;20046;-73
2022/12/03 00:14:16;;;;;;;27.48;11.65;;;-5.20;99.90;;;;;;5012387;28;20444;-72
2022/12/03 00:16:44;;;;;;;21.88;10.05;;;-5.20;99.90;;;;;;4995422;28;20046;-73
2022/12/03 00:19:11;;;;;;;27.50;10.98;;;-5.20;99.90;;;;;;5013036;28;20077;-73
2022/12/03 00:21:38;;;;;;;25.10;9.98;;;-5.20;99.90;;;;;;5013018;28;20064;-72
2022/12/03 00:24:06;;;;;;;25.70;9.52;;;-5.20;99.90;;;;;;5012094;28;20465;-74
2022/12/03 00:26:35;;;;;;;21.70;9.77;;;-5.20;99.90;;;;;;5013143;28;20064;-74
2022/12/03 00:29:03;;;;;;;25.88;10.95;;;-5.20;99.90;;;;;;5011838;28;20046;-74
2022/12/03 00:31:30;;;;;;;22.88;11.13;;;-5.20;99.90;;;;;;5012184;28;20149;-73
2022/12/03 00:33:58;;;;;;;24.23;10.27;;;-5.20;99.90;;;;;;5013199;28;20052;-73
2022/12/03 00:36:25;;;;;;;23.92;10.50;;;-5.20;99.90;;;;;;5011299;28;20065;-73
2022/12/03 00:38:54;;;;;;;22.10;10.45;;;-5.10;99.90;;;;;;5012844;28;20060;-73
2022/12/03 00:41:22;;;;;;;25.20;10.18;;;-5.00;99.90;;;;;;5043591;28;20061;-73
2022/12/03 00:43:50;;;;;;;18.58;8.85;;;-5.10;99.90;;;;;;5012983;28;20068;-72
2022/12/03 00:46:18;;;;;;;22.85;10.45;;;-5.10;99.90;;;;;;5012501;28;20080;-73
2022/12/03 00:48:45;;;;;;;25.23;9.57;;;-5.10;99.90;;;;;;5011289;28;20041;-74
2022/12/03 00:51:13;;;;;;;21.67;9.43;;;-5.10;99.90;;;;;;5011285;28;20046;-73
2022/12/03 00:53:41;;;;;;;21.35;9.98;;;-5.10;99.90;;;;;;5010951;28;20069;-74
2022/12/03 00:56:09;;;;;;;16.30;8.27;;;-5.10;99.90;;;;;;5010901;28;20061;-74
2022/12/03 00:58:36;;;;;;;19.00;9.70;;;-5.00;99.90;;;;;;5011970;28;20042;-73
2022/12/03 01:01:05;;;;;;;20.48;9.77;;;-5.00;99.90;;;;;;5012363;28;20053;-74
2022/12/03 01:03:33;;;;;;;17.80;9.20;;;-5.10;99.90;;;;;;5011413;28;20034;-73
2022/12/03 01:06:00;;;;;;;21.33;10.43;;;-5.10;99.90;;;;;;5011970;28;20514;-73
2022/12/03 01:08:27;;;;;;;20.73;9.15;;;-5.20;99.90;;;;;;5011042;28;20038;-75
2022/12/03 01:10:55;;;;;;;19.02;9.20;;;-5.20;99.90;;;;;;5012463;28;20518;-73
2022/12/03 01:13:22;;;;;;;21.10;9.57;;;-5.20;99.90;;;;;;5012669;28;20052;-73
2022/12/03 01:15:49;;;;;;;20.98;8.77;;;-5.20;99.90;;;;;;5012372;28;20089;-73
2022/12/03 01:18:18;;;;;;;20.13;8.52;;;-5.20;99.90;;;;;;5011715;28;20045;-73
2022/12/03 01:20:45;;;;;;;19.50;8.95;;;-5.20;99.90;;;;;;5011977;28;20439;-73
2022/12/03 01:23:13;;;;;;;19.02;8.93;;;-5.20;99.90;;;;;;5011045;28;20050;-73
2022/12/03 01:25:41;;;;;;;17.38;8.88;;;-5.20;99.90;;;;;;5010885;28;20053;-73
2022/12/03 01:28:08;;;;;;;19.92;9.65;;;-5.20;99.90;;;;;;5012322;28;20037;-73
2022/12/03 01:32:15;;;;;;;16.17;7.85;;;-5.30;99.90;;;;;;5011336;28;20115;-74
2022/12/03 01:33:23;;;;;;;17.80;8.43;;;-5.40;99.90;;;;;;5010763;28;20141;-73
2022/12/03 01:35:50;;;;;;;20.48;9.35;;;-5.40;99.90;;;;;;5025556;28;20061;-73
2022/12/03 01:38:17;;;;;;;17.38;8.35;;;-5.40;99.90;;;;;;5011861;28;20058;-73
2022/12/03 01:40:45;;;;;;;21.65;9.80;;;-5.50;99.90;;;;;;5026837;28;20439;-73
2022/12/03 01:43:12;;;;;;;17.95;9.23;;;-5.50;99.90;;;;;;5011720;28;20058;-73
2022/12/03 01:45:39;;;;;;;20.92;9.35;;;-5.50;99.90;;;;;;5009146;28;20466;-73
2022/12/03 01:48:09;;;;;;;18.48;9.63;;;-5.50;99.90;;;;;;5011916;28;20060;-72
2022/12/03 01:50:37;;;;;;;18.90;8.90;;;-5.50;99.90;;;;;;5011308;28;20498;-73
2022/12/03 01:53:05;;;;;;;18.38;8.73;;;-5.50;99.90;;;;;;5010905;28;20068;-74
2022/12/03 01:55:32;;;;;;;21.45;9.45;;;-5.50;99.90;;;;;;5011362;28;20084;-74
2022/12/03 01:58:02;;;;;;;22.27;10.00;;;-5.50;99.90;;;;;;5011100;28;20057;-74
2022/12/03 02:00:30;;;;;;;19.30;9.23;;;-5.60;99.90;;;;;;5011336;28;20050;-74
2022/12/03 02:03:01;;;;;;;21.10;9.88;;;-5.50;99.90;;;;;;5006205;28;20054;-74
2022/12/03 02:05:31;;;;;;;18.63;9.00;;;-5.60;99.90;;;;;;4990304;28;20050;-74
2022/12/03 02:08:00;;;;;;;23.20;10.68;;;-5.60;99.90;;;;;;4991863;28;20046;-74
2022/12/03 02:10:32;;;;;;;22.88;10.18;;;-5.60;99.90;;;;;;4991597;28;20138;-74
2022/12/03 02:13:03;;;;;;;24.23;8.77;;;-5.60;99.90;;;;;;5011321;28;20057;-73
2022/12/03 02:15:31;;;;;;;18.35;8.70;;;-5.60;99.90;;;;;;5011227;28;20081;-73
2022/12/03 02:17:58;;;;;;;21.35;9.52;;;-5.50;99.90;;;;;;5009766;28;20046;-73
2022/12/03 02:20:26;;;;;;;22.75;10.65;;;-5.50;99.90;;;;;;5008605;28;20149;-73
2022/12/03 02:23:00;;;;;;;22.98;10.07;;;-5.60;99.90;;;;;;5011434;28;20049;-74
2022/12/03 02:25:33;;;;;;;21.15;9.32;;;-5.50;99.90;;;;;;4993379;28;20084;-73
2022/12/03 02:28:03;;;;;;;20.58;9.30;;;-5.50;99.90;;;;;;5011207;28;20115;-73
2022/12/03 02:30:31;;;;;;;18.05;9.23;;;-5.50;99.90;;;;;;5008948;28;20060;-73
2022/12/03 02:32:59;;;;;;;20.23;9.20;;;-5.50;99.90;;;;;;5009879;28;20077;-73
2022/12/03 02:35:30;;;;;;;22.63;8.60;;;-5.50;99.90;;;;;;5010746;28;20050;-73
2022/12/03 02:38:09;;;;;;;24.42;9.88;;;-5.50;99.90;;;;;;5025423;28;20084;-73
2022/12/03 02:40:38;;;;;;;17.67;8.63;;;-5.50;99.90;;;;;;5043076;28;20052;-73
2022/12/03 02:43:05;;;;;;;20.92;8.88;;;-5.50;99.90;;;;;;5029518;28;20054;-72
2022/12/03 02:45:36;;;;;;;17.77;9.05;;;-5.50;99.90;;;;;;5014793;28;20132;-73
2022/12/03 02:48:07;;;;;;;22.50;8.65;;;-5.50;99.90;;;;;;5029228;28;20080;-73
2022/12/03 02:50:38;;;;;;;23.38;8.95;;;-5.50;99.90;;;;;;5013957;28;20148;-74
2022/12/03 02:53:09;;;;;;;19.63;9.55;;;-5.40;99.90;;;;;;5012548;28;20144;-73
2022/12/03 02:55:38;;;;;;;20.95;9.15;;;-5.30;99.90;;;;;;5013265;28;20151;-73
2022/12/03 02:58:06;;;;;;;17.80;8.38;;;-5.30;99.90;;;;;;4990267;28;20053;-73
2022/12/03 03:00:35;;;;;;;20.58;9.65;;;-5.30;99.90;;;;;;5012135;28;20042;-74
2022/12/03 03:03:04;;;;;;;17.98;9.05;;;-5.30;99.90;;;;;;5012106;28;20077;-74
2022/12/03 03:05:33;;;;;;;20.63;8.82;;;-5.30;99.90;;;;;;5012226;28;20498;-73
2022/12/03 03:08:00;;;;;;;19.85;8.73;;;-5.30;99.90;;;;;;5028584;28;20046;-73
2022/12/03 03:10:29;;;;;;;23.40;9.50;;;-5.40;99.90;;;;;;5013392;28;20062;-74
2022/12/03 03:12:59;;;;;;;18.88;8.30;;;-5.40;99.90;;;;;;5012104;28;20045;-74
2022/12/03 03:15:26;;;;;;;18.42;7.93;;;-5.40;99.90;;;;;;5011825;28;20399;-74
2022/12/03 03:17:53;;;;;;;16.30;8.80;;;-5.50;99.90;;;;;;5011830;28;20042;-73
2022/12/03 03:20:21;;;;;;;16.98;9.15;;;-5.50;99.90;;;;;;5013071;28;20049;-74
2022/12/03 03:22:48;;;;;;;17.60;8.55;;;-5.50;99.90;;;;;;5013419;28;20046;-73
2022/12/03 03:25:19;;;;;;;16.40;8.48;;;-5.50;99.90;;;;;;5012044;28;20120;-74
2022/12/03 03:27:47;;;;;;;18.30;7.85;;;-5.50;99.90;;;;;;5013171;28;20050;-74
2022/12/03 03:30:16;;;;;;;20.92;9.32;;;-5.50;99.90;;;;;;5012849;28;20046;-74
2022/12/03 03:32:43;;;;;;;26.42;9.30;;;-5.50;99.90;;;;;;5012083;28;20494;-73
2022/12/03 03:35:13;;;;;;;18.83;9.13;;;-5.60;99.90;;;;;;5011625;28;20145;-72
2022/12/03 03:37:41;;;;;;;15.63;7.65;;;-5.60;99.90;;;;;;5011738;28;20041;-73
2022/12/03 03:40:10;;;;;;;22.52;8.85;;;-5.70;99.90;;;;;;5012743;28;20069;-72
2022/12/03 03:42:39;;;;;;;20.60;7.60;;;-5.70;99.90;;;;;;5012098;28;20046;-73
2022/12/03 03:45:09;;;;;;;15.88;8.00;;;-5.70;99.90;;;;;;5027734;28;20140;-73
2022/12/03 03:47:38;;;;;;;17.10;8.73;;;-5.70;99.90;;;;;;5012866;28;20399;-74
2022/12/03 03:50:07;;;;;;;32.55;8.35;;;-5.80;99.90;;;;;;4481964;28;15253405;-79
2022/12/03 03:52:35;;;;;;;17.60;9.13;;;-5.80;99.90;;;;;;4984087;28;20073;-80
2022/12/03 03:55:04;;;;;;;16.10;7.72;;;-5.80;99.90;;;;;;5013363;28;20143;-79
2022/12/03 03:57:31;;;;;;;17.08;8.15;;;-5.80;99.90;;;;;;5014055;28;20058;-80
2022/12/03 03:59:59;;;;;;;15.65;7.60;;;-5.80;99.90;;;;;;5012566;28;20048;-80
2022/12/03 04:02:28;;;;;;;21.13;8.50;;;-5.80;99.90;;;;;;5029306;28;20061;-78
2022/12/03 04:04:56;;;;;;;16.70;8.20;;;-5.80;99.90;;;;;;5013582;28;20399;-79
2022/12/03 04:07:24;;;;;;;20.27;8.80;;;-5.90;99.90;;;;;;5013475;28;20050;-79
2022/12/03 04:09:51;;;;;;;18.23;8.40;;;-5.90;99.90;;;;;;5012929;28;20052;-79
2022/12/03 04:15:05;;;;;;;19.05;9.05;;;-5.90;99.90;;;;;;5012043;28;20060;-80
2022/12/03 04:17:32;;;;;;;21.17;9.25;;;-5.90;99.90;;;;;;5012347;28;20061;-79
2022/12/03 04:20:01;;;;;;;17.08;8.52;;;-5.90;99.90;;;;;;5016305;28;20109;-80
2022/12/03 04:22:38;;;;;;;16.48;8.30;;;-5.90;99.90;;;;;;5004192;28;20144;-80
2022/12/03 04:30:39;;;;;;;19.23;8.05;;;-5.90;99.90;;;;;;5013140;28;20054;-78
2022/12/03 04:35:52;;;;;;;19.23;8.88;;;-6.00;99.90;;;;;;5010552;28;20545;-78
2022/12/03 04:38:19;;;;;;;19.77;8.80;;;-6.00;99.90;;;;;;5012747;28;20048;-76
2022/12/03 04:41:02;;;;;;;18.15;8.85;;;-6.10;99.90;;;;;;5012726;28;20510;-78
2022/12/03 04:43:32;;;;;;;19.33;10.30;;;-6.10;99.90;;;;;;5011820;28;20082;-80
2022/12/03 04:46:00;;;;;;;18.25;8.93;;;-6.10;99.90;;;;;;4993516;28;20050;-77
2022/12/03 04:48:28;;;;;;;20.13;9.13;;;-6.10;99.90;;;;;;5010258;28;20038;-77
2022/12/03 04:50:56;;;;;;;18.63;8.75;;;-6.10;99.90;;;;;;5011752;28;20050;-78
2022/12/03 04:53:24;;;;;;;18.88;9.02;;;-6.10;99.90;;;;;;5010248;28;20038;-72
2022/12/03 04:55:51;;;;;;;20.33;9.85;;;-6.10;99.90;;;;;;5010401;28;20484;-72
2022/12/03 04:58:18;;;;;;;17.40;8.65;;;-6.10;99.90;;;;;;5010835;28;20041;-73
2022/12/03 05:00:46;;;;;;;21.05;9.43;;;-6.10;99.90;;;;;;5009177;28;20045;-73
2022/12/03 05:03:13;;;;;;;19.08;8.73;;;-6.10;99.90;;;;;;5009959;28;20050;-71
2022/12/03 05:05:41;;;;;;;22.02;9.88;;;-6.10;99.90;;;;;;5041889;28;20149;-71
2022/12/03 05:08:10;;;;;;;15.73;8.80;;;-6.10;99.90;;;;;;5011681;28;20044;-79
2022/12/03 05:10:37;;;;;;;19.15;8.45;;;-6.00;99.90;;;;;;4993613;28;20056;-77
2022/12/03 05:13:04;;;;;;;21.00;9.80;;;-6.00;99.90;;;;;;5008587;28;20046;-70
2022/12/03 05:15:32;;;;;;;22.27;9.40;;;-6.00;99.90;;;;;;5006709;28;20522;-79
2022/12/03 05:17:59;;;;;;;22.63;8.88;;;-6.00;99.90;;;;;;5008791;28;20096;-74
2022/12/03 05:23:18;;;;;;;27.30;9.25;;;-6.00;99.90;;;;;;4995746;28;20062;-74
2022/12/03 05:25:46;;;;;;;20.67;9.02;;;-6.00;99.90;;;;;;5011836;28;20046;-75
2022/12/03 05:28:14;;;;;;;23.40;9.48;;;-6.10;99.90;;;;;;5025482;28;20056;-75
2022/12/03 05:30:41;;;;;;;21.60;9.10;;;-6.10;99.90;;;;;;5018538;28;20046;-75
2022/12/03 05:33:09;;;;;;;15.02;8.18;;;-6.20;99.90;;;;;;5011789;28;20057;-75
2022/12/03 05:35:36;;;;;;;18.95;9.00;;;-6.20;99.90;;;;;;5011760;28;20060;-74
2022/12/03 05:38:04;;;;;;;19.77;8.63;;;-6.20;99.90;;;;;;5010605;28;20049;-74
2022/12/03 05:40:32;;;;;;;23.15;9.10;;;-6.20;99.90;;;;;;5009151;28;20057;-75
2022/12/03 05:43:00;;;;;;;24.00;10.13;;;-6.30;99.90;;;;;;5010323;28;20477;-75
2022/12/03 05:45:30;;;;;;;17.38;8.48;;;-6.30;99.90;;;;;;5008737;28;20608;-75
2022/12/03 05:47:59;;;;;;;22.25;9.40;;;-6.30;99.90;;;;;;5026114;28;20188;-74
2022/12/03 05:50:30;;;;;;;17.70;9.30;;;-6.20;99.90;;;;;;5011369;28;20034;-74
2022/12/03 05:52:58;;;;;;;23.65;9.98;;;-6.20;99.90;;;;;;5011899;28;20053;-76
2022/12/03 05:55:27;;;;;;;20.42;9.57;;;-6.20;99.90;;;;;;5011579;28;20052;-75
2022/12/03 05:57:56;;;;;;;23.02;10.38;;;-6.20;99.90;;;;;;5010470;28;20065;-75
2022/12/03 06:00:25;;;;;;;22.60;11.40;;;-6.20;99.90;;;;;;5011346;28;20052;-75
2022/12/03 06:02:54;;;;;;;25.67;11.05;;;-6.20;99.90;;;;;;5010445;28;20058;-75
2022/12/03 06:05:23;;;;;;;21.60;9.68;;;-6.20;99.90;;;;;;5010061;28;20034;-76
2022/12/03 06:07:52;;;;;;;23.30;9.65;;;-6.20;99.90;;;;;;5006214;28;20069;-75
2022/12/03 06:10:24;;;;;;;23.70;9.85;;;-6.20;99.90;;;;;;4992823;28;20064;-74
2022/12/03 06:12:52;;;;;;;19.10;9.20;;;-6.20;99.90;;;;;;4992060;28;20075;-75
2022/12/03 06:15:22;;;;;;;19.38;9.80;;;-6.20;99.90;;;;;;5006910;28;20046;-75
2022/12/03 06:17:49;;;;;;;21.77;9.65;;;-6.20;99.90;;;;;;5010262;28;20089;-74
2022/12/03 06:20:19;;;;;;;19.92;9.60;;;-6.20;99.90;;;;;;5011560;28;20046;-74
2022/12/03 06:22:47;;;;;;;22.83;9.50;;;-6.20;99.90;;;;;;5026626;28;20096;-76
2022/12/03 06:25:16;;;;;;;22.77;8.93;;;-6.20;99.90;;;;;;5007790;28;20050;-77
2022/12/03 06:27:44;;;;;;;25.70;10.27;;;-6.10;99.90;;;;;;5007407;28;20565;-76
2022/12/03 06:30:14;;;;;;;24.60;10.70;;;-6.10;99.90;;;;;;5008618;28;20062;-77
2022/12/03 06:32:42;;;;;;;23.50;10.23;;;-6.10;99.90;;;;;;5009254;28;20410;-76
2022/12/03 06:35:10;;;;;;;19.63;9.93;;;-6.10;99.90;;;;;;5008928;28;20042;-75
2022/12/03 06:37:37;;;;;;;25.20;11.32;;;-6.00;99.90;;;;;;5011025;28;20054;-77
2022/12/03 06:40:07;;;;;;;21.50;9.52;;;-6.00;99.90;;;;;;5026370;28;20049;-76
2022/12/03 06:42:38;;;;;;;22.35;9.75;;;-6.00;99.90;;;;;;5010282;28;20050;-77
2022/12/03 06:45:07;;;;;;;24.85;10.23;;;-5.90;99.90;;;;;;5011239;28;20061;-78
2022/12/03 06:47:42;;;;;;;25.25;10.35;;;-5.80;99.90;;;;;;5011620;28;20069;-76
2022/12/03 06:50:10;;;;;;;27.67;10.15;;;-5.80;99.90;;;;;;5010919;28;20053;-76
2022/12/03 06:52:38;;;;;;;21.20;9.70;;;-5.70;99.90;;;;;;5009449;28;20077;-75
2022/12/03 06:55:07;;;;;;;21.77;9.70;;;-5.70;99.90;;;;;;5026216;28;20057;-71
2022/12/03 06:57:34;;;;;;;21.55;10.05;;;-5.60;99.90;;;;;;5010782;28;20049;-73
2022/12/03 07:00:02;;;;;;;21.75;10.52;;;-5.50;99.90;;;;;;5011117;28;20164;-71
2022/12/03 07:02:31;;;;;;;20.65;9.57;;;-5.40;99.90;;;;;;5009746;28;20404;-72
2022/12/03 07:05:01;;;;;;;22.30;10.23;;;-5.40;99.90;;;;;;4991023;28;20046;-72
2022/12/03 07:07:33;;;;;;;27.20;10.25;;;-5.30;99.90;;;;;;4998745;28;20430;-75
2022/12/03 07:10:01;;;;;;;20.50;10.10;;;-5.20;99.90;;;;;;5009602;28;20050;-70
2022/12/03 07:12:31;;;;;;;21.60;9.50;;;-5.20;99.90;;;;;;5009632;28;20054;-72
2022/12/03 07:14:59;;;;;;;23.35;10.68;;;-5.00;99.90;;;;;;5009127;28;20145;-71
2022/12/03 07:17:26;;;;;;;19.92;9.57;;;-5.00;99.90;;;;;;5010213;28;20077;-71
2022/12/03 07:19:53;;;;;;;24.35;10.57;;;-5.10;99.90;;;;;;5026682;28;20507;-78
2022/12/03 07:22:22;;;;;;;25.35;10.13;;;-5.00;99.90;;;;;;5011214;28;20042;-76
2022/12/03 07:24:49;;;;;;;20.15;9.88;;;-4.90;99.90;;;;;;5011282;28;20049;-74
2022/12/03 07:27:17;;;;;;;27.50;10.20;;;-4.80;99.90;;;;;;5010974;28;20042;-77
2022/12/03 07:29:44;;;;;;;28.42;9.90;;;-4.80;99.90;;;;;;5014573;28;20064;-75
2022/12/03 07:32:11;;;;;;;21.80;9.38;;;-4.70;99.90;;;;;;5013977;28;20049;-76
2022/12/03 07:34:39;;;;;;;20.90;10.32;;;-4.60;99.90;;;;;;4993086;28;20462;-75
2022/12/03 07:37:06;;;;;;;22.48;9.93;;;-4.60;99.90;;;;;;5013386;28;20056;-75
2022/12/03 07:39:35;;;;;;;23.73;10.55;;;-4.50;99.90;;;;;;4997322;28;20057;-75
2022/12/03 07:42:03;;;;;;;22.65;9.65;;;-4.40;99.90;;;;;;5008748;28;20042;-76
2022/12/03 07:44:31;;;;;;;24.75;10.18;;;-4.20;99.90;;;;;;5010430;28;20286;-76
2022/12/03 07:46:59;;;;;;;21.73;11.05;;;-4.10;99.90;;;;;;5014149;28;20084;-77
2022/12/03 07:49:27;;;;;;;26.42;10.73;;;-4.20;99.90;;;;;;5012883;28;20057;-75
2022/12/03 07:51:55;;;;;;;23.05;10.48;;;-4.10;99.90;;;;;;5006834;28;20046;-75
2022/12/03 07:54:24;;;;;;;22.77;9.65;;;-4.10;99.90;;;;;;5011946;28;20073;-77
2022/12/03 07:56:53;;;;;;;18.38;9.75;;;-4.10;99.90;;;;;;5012410;28;20046;-77
2022/12/03 07:59:20;;;;;;;28.77;10.23;;;-4.10;99.90;;;;;;5012242;28;20033;-78
2022/12/03 08:01:47;;;;;;;22.67;9.55;;;-4.00;99.90;;;;;;4996633;28;20049;-76
2022/12/03 08:04:17;;;;;;;22.67;9.70;;;-3.90;99.90;;;;;;5008328;28;20073;-76
2022/12/03 08:06:45;;;;;;;18.35;9.82;;;-3.70;99.90;;;;;;4999261;28;20078;-76
2022/12/03 08:09:13;;;;;;;25.95;10.90;;;-3.60;99.90;;;;;;5009674;28;20104;-77
2022/12/03 08:11:41;;;;;;;20.02;10.57;;;-3.60;99.90;;;;;;5010287;28;20062;-75
2022/12/03 08:14:12;;;;;;;19.48;9.10;;;-3.50;99.90;;;;;;5005345;28;20062;-74
2022/12/03 08:16:42;;;;;;;24.10;10.55;;;-3.50;99.90;;;;;;5013119;28;20056;-74
2022/12/03 08:19:12;;;;;;;21.92;10.13;;;-3.40;99.90;;;;;;5013598;28;20049;-75
2022/12/03 08:21:43;;;;;;;24.75;9.90;;;-3.50;99.90;;;;;;5013437;28;20144;-74
2022/12/03 08:24:17;;;;;;;19.75;11.70;;;-3.50;99.90;;;;;;5014156;28;20053;-71
2022/12/03 08:26:46;;;;;;;18.63;9.65;;;-3.50;99.90;;;;;;5013192;28;20096;-72
2022/12/03 08:29:18;;;;;;;25.05;11.52;;;-3.50;99.90;;;;;;5013446;28;20045;-71
2022/12/03 08:31:50;;;;;;;22.58;10.05;;;-3.50;99.90;;;;;;5013220;28;20518;-71
2022/12/03 08:34:21;;;;;;;25.30;10.20;;;-3.50;99.90;;;;;;5006947;28;20128;-71
2022/12/03 08:37:01;;;;;;;22.25;9.48;;;-3.50;99.90;;;;;;5002380;28;20152;-72
2022/12/03 08:39:33;;;;;;;23.38;11.27;;;-3.50;99.90;;;;;;5006580;28;20061;-72
2022/12/03 08:45:23;;;;;;;22.55;10.48;;;-3.50;99.90;;;;;;5009979;28;20045;-72
2022/12/03 08:47:50;;;;;;;23.77;11.90;;;-3.50;99.90;;;;;;5007750;28;20184;-73
2022/12/03 08:50:28;;;;;;;25.48;11.63;;;-3.50;99.90;;;;;;5010117;28;20046;-73
2022/12/03 08:53:08;;;;;;;21.08;11.43;;;-3.50;99.90;;;;;;5006716;28;20586;-72
2022/12/03 08:55:37;;;;;;;27.67;11.63;;;-3.60;99.90;;;;;;5001349;28;20051;-77
2022/12/03 08:58:22;;;;;;;24.80;12.68;;;-3.60;99.90;;;;;;5006616;28;20531;-78
2022/12/03 09:00:56;;;;;;;25.00;11.95;;;-3.70;99.90;;;;;;5006111;28;20127;-77
2022/12/03 09:03:23;;;;;;;31.83;12.90;;;-3.60;99.90;;;;;;5011628;28;20436;-77
2022/12/03 09:05:50;;;;;;;26.60;12.55;;;-3.50;99.90;;;;;;5010665;28;20042;-78
2022/12/03 09:08:18;;;;;;;28.48;12.95;;;-3.40;99.90;;;;;;5012540;28;20072;-77
2022/12/03 09:10:45;;;;;;;33.45;13.95;;;-3.40;99.90;;;;;;5010250;28;20073;-77
2022/12/03 09:13:13;;;;;;;22.50;12.38;;;-3.50;99.90;;;;;;5009803;28;20425;-73
2022/12/03 09:15:40;;;;;;;24.38;12.15;;;-3.40;99.90;;;;;;5010668;28;20047;-72
2022/12/03 09:18:09;;;;;;;24.63;11.52;;;-3.30;99.90;;;;;;5009295;28;20502;-73
2022/12/03 09:20:37;;;;;;;22.17;11.68;;;-3.20;99.90;;;;;;5010154;28;20042;-72
2022/12/03 09:23:04;;;;;;;23.20;12.32;;;-3.00;99.90;;;;;;5013116;28;20498;-74
2022/12/03 09:25:32;;;;;;;26.73;12.43;;;-2.90;99.90;;;;;;5012127;28;20149;-73
2022/12/03 09:27:59;;;;;;;27.10;12.57;;;-2.90;99.90;;;;;;5012837;28;20049;-73
2022/12/03 09:30:26;;;;;;;28.95;11.38;;;-3.00;99.90;;;;;;4993957;28;20048;-72
2022/12/03 09:32:54;;;;;;;28.38;12.57;;;-3.20;99.90;;;;;;5012636;28;20065;-72
2022/12/03 09:35:24;;;;;;;27.60;12.18;;;-3.30;99.90;;;;;;4993522;28;20038;-73
2022/12/03 09:37:52;;;;;;;23.90;11.80;;;-3.40;99.90;;;;;;5002379;28;20061;-73
2022/12/03 09:40:20;;;;;;;28.65;11.73;;;-3.60;99.90;;;;;;5005654;28;20070;-74
2022/12/03 09:42:48;;;;;;;24.30;11.68;;;-3.60;99.90;;;;;;5010234;28;20498;-73
2022/12/03 09:45:16;;;;;;;24.70;11.30;;;-3.60;99.90;;;;;;5005055;28;20442;-78
2022/12/03 09:47:47;;;;;;;23.35;10.02;;;-3.60;99.90;;;;;;5008189;28;20054;-77
2022/12/03 09:50:19;;;;;;;24.35;11.85;;;-3.50;99.90;;;;;;5009657;28;20119;-76
2022/12/03 09:52:49;;;;;;;24.08;10.82;;;-3.50;99.90;;;;;;5010542;28;20576;-78
2022/12/03 09:55:24;;;;;;;21.55;10.82;;;-3.50;99.90;;;;;;5043441;28;20541;-77
2022/12/03 09:57:52;;;;;;;39.60;11.95;;;-3.60;99.90;;;;;;5005927;28;20493;-78
2022/12/03 10:00:23;;;;;;;23.77;11.25;;;-3.60;99.90;;;;;;5000720;28;20045;-78
2022/12/03 10:02:52;;;;;;;26.88;10.63;;;-3.60;99.90;;;;;;4990480;28;20406;-80
2022/12/03 10:05:22;;;;;;;21.65;9.57;;;-3.50;99.90;;;;;;5005459;28;20092;-79
2022/12/03 10:07:52;;;;;;;24.75;10.85;;;-3.40;99.90;;;;;;5008007;28;20049;-77
2022/12/03 10:10:24;;;;;;;24.00;10.75;;;-3.40;99.90;;;;;;5009726;28;20512;-79
2022/12/03 10:12:52;;;;;;;26.17;11.27;;;-3.30;99.90;;;;;;5010069;28;20049;-80
2022/12/03 10:15:23;;;;;;;19.73;9.95;;;-3.20;99.90;;;;;;5007977;28;20041;-78
2022/12/03 10:17:54;;;;;;;21.58;9.75;;;-3.00;99.90;;;;;;5009436;28;20600;-77
2022/12/03 10:20:24;;;;;;;23.65;10.30;;;-2.90;99.90;;;;;;5003283;28;20054;-76
2022/12/03 10:22:53;;;;;;;21.15;10.52;;;-2.70;99.90;;;;;;5007521;28;20144;-77
2022/12/03 10:25:22;;;;;;;21.42;10.80;;;-2.60;99.90;;;;;;5010830;28;20085;-76
2022/12/03 10:27:59;;;;;;;26.20;10.52;;;-2.60;99.90;;;;;;5007735;28;20395;-77
2022/12/03 10:30:27;;;;;;;20.58;9.93;;;-2.70;99.90;;;;;;5007928;28;20042;-74
2022/12/03 10:32:57;;;;;;;22.00;9.57;;;-2.60;99.90;;;;;;5008070;28;20457;-73
2022/12/03 10:35:35;;;;;;;21.00;10.02;;;-2.60;99.90;;;;;;5009181;28;20519;-74
2022/12/03 10:38:06;;;;;;;21.77;10.27;;;-2.60;99.90;;;;;;5008885;28;20054;-72
2022/12/03 10:40:37;;;;;;;22.52;10.90;;;-2.50;99.90;;;;;;5003290;28;20046;-74
2022/12/03 10:43:20;;;;;;;21.10;10.98;;;-2.40;99.90;;;;;;5008269;28;20426;-73
2022/12/03 10:45:49;;;;;;;22.63;10.82;;;-2.40;99.90;;;;;;5040230;28;20038;-74
2022/12/03 10:48:19;;;;;;;28.38;11.25;;;-2.50;99.90;;;;;;5008683;28;20049;-73
2022/12/03 10:50:50;;;;;;;20.33;10.80;;;-2.50;99.90;;;;;;5006186;28;20507;-73
2022/12/03 10:53:22;;;;;;;25.42;11.75;;;-2.50;99.90;;;;;;5009777;28;20398;-76
2022/12/03 10:55:57;;;;;;;20.23;9.68;;;-2.60;99.90;;;;;;5009201;28;20605;-75
2022/12/03 10:58:27;;;;;;;19.67;9.70;;;-2.60;99.90;;;;;;5019536;28;20396;-77
2022/12/03 11:00:58;;;;;;;21.58;9.55;;;-2.60;99.90;;;;;;5006076;28;20054;-76
2022/12/03 11:03:28;;;;;;;23.10;9.35;;;-2.60;99.90;;;;;;5011755;28;20060;-73
2022/12/03 11:05:57;;;;;;;25.27;11.30;;;-2.60;99.90;;;;;;5010555;28;20054;-72
2022/12/03 11:08:29;;;;;;;18.00;9.60;;;-2.70;99.90;;;;;;5003289;28;20038;-73
2022/12/03 11:10:59;;;;;;;25.48;11.63;;;-2.70;99.90;;;;;;5011327;28;20057;-73
2022/12/03 11:13:46;;;;;;;21.50;10.00;;;-2.70;99.90;;;;;;5009164;28;20049;-72
2022/12/03 11:16:58;;;;;;;18.63;9.77;;;-2.60;99.90;;;;;;5009966;28;20100;-78
2022/12/03 11:19:48;;;;;;;21.05;10.07;;;-2.70;99.90;;;;;;4997355;28;20058;-77
2022/12/03 11:22:44;;;;;;;19.38;10.07;;;-2.70;99.90;;;;;;5009916;28;20053;-76
2022/12/03 11:25:52;;;;;;;18.60;9.75;;;-2.80;99.90;;;;;;5002389;28;20092;-77
2022/12/03 11:28:53;;;;;;;25.17;10.77;;;-2.70;99.90;;;;;;4950859;29;20051;-77
2022/12/03 11:31:37;;;;;;;20.45;9.55;;;-2.70;99.90;;;;;;5011296;28;20053;-78
2022/12/03 11:34:48;;;;;;;19.23;10.15;;;-2.60;99.90;;;;;;5011366;28;20052;-79
2022/12/03 11:37:26;;;;;;;24.08;10.57;;;-2.60;99.90;;;;;;5012785;28;20137;-77
2022/12/03 11:40:18;;;;;;;24.25;10.43;;;-2.60;99.90;;;;;;5013490;28;20434;-79
2022/12/03 11:42:48;;;;;;;27.10;10.30;;;-2.60;99.90;;;;;;5009474;28;20128;-78
2022/12/03 11:45:23;;;;;;;30.40;10.75;;;-2.60;99.90;;;;;;5013965;28;20081;-78
2022/12/03 11:48:12;;;;;;;24.58;10.35;;;-2.60;99.90;;;;;;5005372;28;20056;-79
2022/12/03 11:50:43;;;;;;;22.73;10.07;;;-2.60;99.90;;;;;;5006513;28;20577;-77
2022/12/03 11:53:17;;;;;;;20.52;11.20;;;-2.70;99.90;;;;;;5005586;28;20049;-78
2022/12/03 11:55:51;;;;;;;19.52;10.93;;;-2.70;99.90;;;;;;5006203;28;20465;-77
2022/12/03 11:58:27;;;;;;;21.42;11.32;;;-2.70;99.90;;;;;;4994845;28;20081;-79
2022/12/03 12:00:57;;;;;;;20.10;9.80;;;-2.60;99.90;;;;;;5010391;28;20418;-79
2022/12/03 12:03:27;;;;;;;20.75;10.23;;;-2.60;99.90;;;;;;5016445;28;20053;-77
2022/12/03 12:06:07;;;;;;;20.13;8.90;;;-2.60;99.90;;;;;;5008304;28;20058;-74
2022/12/03 12:08:38;;;;;;;19.23;10.05;;;-2.60;99.90;;;;;;5039443;28;20068;-73
2022/12/03 12:11:18;;;;;;;21.33;9.73;;;-2.60;99.90;;;;;;5038545;28;20054;-75
2022/12/03 12:13:57;;;;;;;22.10;11.07;;;-2.60;99.90;;;;;;5006261;28;20062;-73
2022/12/03 12:16:49;;;;;;;20.90;10.98;;;-2.60;99.90;;;;;;5032688;28;20049;-72
2022/12/03 12:19:41;;;;;;;19.38;9.52;;;-2.70;99.90;;;;;;5012822;28;20057;-73
2022/12/03 12:22:29;;;;;;;20.80;11.70;;;-2.60;99.90;;;;;;5011362;28;20396;-71
2022/12/03 12:24:58;;;;;;;23.20;10.95;;;-2.60;99.90;;;;;;5036933;28;20054;-73
2022/12/03 12:27:38;;;;;;;25.80;11.98;;;-2.60;99.90;;;;;;5010423;28;20431;-75
2022/12/03 12:30:13;;;;;;;26.40;11.35;;;-2.60;99.90;;;;;;5010994;28;20076;-79
2022/12/03 12:32:46;;;;;;;24.25;12.15;;;-2.50;99.90;;;;;;5012184;28;20050;-77
2022/12/03 12:35:21;;;;;;;40.00;13.98;;;-2.50;99.90;;;;;;5008007;28;20073;-77
2022/12/03 12:37:52;;;;;;;30.45;12.80;;;-2.50;99.90;;;;;;5004504;28;20407;-78
2022/12/03 12:40:27;;;;;;;24.90;11.95;;;-2.50;99.90;;;;;;5003981;28;20061;-72
2022/12/03 12:43:02;;;;;;;20.20;11.55;;;-2.40;99.90;;;;;;4992246;28;20054;-73
2022/12/03 12:45:36;;;;;;;23.80;11.02;;;-2.50;99.90;;;;;;5013861;28;20550;-74
2022/12/03 12:48:16;;;;;;;23.63;11.80;;;-2.50;99.90;;;;;;5005637;28;20045;-75
2022/12/03 12:50:46;;;;;;;23.52;12.57;;;-2.50;99.90;;;;;;4999920;28;20050;-71
2022/12/03 12:53:22;;;;;;;29.67;11.73;;;-2.60;99.90;;;;;;5001723;28;20050;-76
2022/12/03 12:55:55;;;;;;;21.17;11.30;;;-2.60;99.90;;;;;;5010730;28;20050;-75
2022/12/03 12:58:24;;;;;;;19.70;11.30;;;-2.60;99.90;;;;;;5008237;28;20050;-73
2022/12/03 13:00:56;;;;;;;23.83;11.25;;;-2.50;99.90;;;;;;5010866;28;20056;-75
2022/12/03 13:03:28;;;;;;;18.35;9.68;;;-2.50;99.90;;;;;;5009272;28;20116;-71
2022/12/03 13:05:57;;;;;;;21.90;10.40;;;-2.40;99.90;;;;;;5008337;28;20044;-76
2022/12/03 13:08:28;;;;;;;19.83;9.73;;;-2.30;99.90;;;;;;5008820;28;20073;-76